WZZ349 ENGM-EETN
Flight info
| Callsign | WZZ349 |
|---|---|
| Flight time | 1h 5m |
| Altitude | 35000 |
| Route | MASEV4A MASEV Z183 LEGPO DCT PERAX DCT KOGAV DCT EBEBU DCT DOBAN DOBAN1L |
| Aircraft | A320/M-SDE3FGHIRWY/LB1 |
Departure
| Time | 2026-05-05 17:24 |
|---|---|
| Airport | Oslo-Gardermoen International Airport (ENGM) |
Arrival
| Time | 2026-05-05 18:30 |
|---|---|
| Airport | Lennart Meri Tallinn Airport (EETN) |
| Time | Latitude | Longitude | Altitude | Speed | Heading |
|---|---|---|---|---|---|
| 2026-05-05 16:57 | 60.19597 | 11.09284 | 679 ft | 0 kts | 194° |
| 2026-05-05 17:14 | 60.19600 | 11.09285 | 679 ft | 3 kts | 194° |
| 2026-05-05 17:14 | 60.19625 | 11.09298 | 677 ft | 4 kts | 194° |
| 2026-05-05 17:14 | 60.19651 | 11.09311 | 675 ft | 4 kts | 194° |
| 2026-05-05 17:14 | 60.19657 | 11.09314 | 676 ft | 0 kts | 194° |
| 2026-05-05 17:17 | 60.19651 | 11.09310 | 675 ft | 5 kts | 196° |
| 2026-05-05 17:18 | 60.19657 | 11.09267 | 677 ft | 5 kts | 329° |
| 2026-05-05 17:18 | 60.19698 | 11.09235 | 679 ft | 8 kts | 329° |
| 2026-05-05 17:18 | 60.19723 | 11.09119 | 676 ft | 11 kts | 286° |
| 2026-05-05 17:18 | 60.19747 | 11.08957 | 678 ft | 14 kts | 286° |
| 2026-05-05 17:19 | 60.19773 | 11.08770 | 678 ft | 12 kts | 286° |
| 2026-05-05 17:19 | 60.19731 | 11.08642 | 676 ft | 14 kts | 198° |
| 2026-05-05 17:19 | 60.19629 | 11.08583 | 679 ft | 17 kts | 197° |
| 2026-05-05 17:19 | 60.19509 | 11.08513 | 679 ft | 19 kts | 196° |
| 2026-05-05 17:20 | 60.19396 | 11.08448 | 680 ft | 14 kts | 196° |
| 2026-05-05 17:20 | 60.19292 | 11.08388 | 680 ft | 17 kts | 195° |
| 2026-05-05 17:20 | 60.19169 | 11.08317 | 680 ft | 20 kts | 194° |
| 2026-05-05 17:20 | 60.19058 | 11.08253 | 681 ft | 15 kts | 198° |
| 2026-05-05 17:21 | 60.18947 | 11.08191 | 681 ft | 18 kts | 196° |
| 2026-05-05 17:21 | 60.18847 | 11.08133 | 681 ft | 13 kts | 197° |
| 2026-05-05 17:21 | 60.18753 | 11.08078 | 682 ft | 15 kts | 191° |
| 2026-05-05 17:22 | 60.18547 | 11.07927 | 681 ft | 15 kts | 228° |
| 2026-05-05 17:22 | 60.18556 | 11.07762 | 682 ft | 10 kts | 287° |
| 2026-05-05 17:22 | 60.18576 | 11.07626 | 680 ft | 0 kts | 286° |
| 2026-05-05 17:22 | 60.18577 | 11.07617 | 682 ft | 4 kts | 286° |
| 2026-05-05 17:23 | 60.18602 | 11.07517 | 681 ft | 11 kts | 312° |
| 2026-05-05 17:23 | 60.18677 | 11.07477 | 681 ft | 13 kts | 16° |
| 2026-05-05 17:23 | 60.18744 | 11.07516 | 681 ft | 37 kts | 17° |
| 2026-05-05 17:23 | 60.19236 | 11.07792 | 682 ft | 106 kts | 15° |
| 2026-05-05 17:24 | 60.20122 | 11.08299 | 677 ft | 156 kts | 16° |
| 2026-05-05 17:24 | 60.21239 | 11.08951 | 1082 ft | 169 kts | 17° |
| 2026-05-05 17:24 | 60.22368 | 11.09611 | 1861 ft | 169 kts | 16° |
| 2026-05-05 17:24 | 60.23558 | 11.10310 | 2254 ft | 189 kts | 17° |
| 2026-05-05 17:25 | 60.24902 | 11.11118 | 2561 ft | 215 kts | 18° |
| 2026-05-05 17:25 | 60.25899 | 11.11674 | 2743 ft | 234 kts | 9° |
| 2026-05-05 17:25 | 60.28143 | 11.11100 | 3589 ft | 249 kts | 350° |
| 2026-05-05 17:25 | 60.29865 | 11.10971 | 4705 ft | 254 kts | 17° |
| 2026-05-05 17:26 | 60.31346 | 11.13008 | 5635 ft | 268 kts | 55° |
| 2026-05-05 17:26 | 60.31978 | 11.16559 | 6585 ft | 278 kts | 90° |
| 2026-05-05 17:26 | 60.31875 | 11.20516 | 7371 ft | 288 kts | 95° |
| 2026-05-05 17:26 | 60.32141 | 11.24556 | 8102 ft | 294 kts | 76° |
| 2026-05-05 17:27 | 60.32852 | 11.28426 | 9019 ft | 295 kts | 69° |
| 2026-05-05 17:27 | 60.33718 | 11.32217 | 9085 ft | 294 kts | 60° |
| 2026-05-05 17:27 | 60.34723 | 11.35768 | 9006 ft | 290 kts | 56° |
| 2026-05-05 17:27 | 60.35796 | 11.39273 | 9731 ft | 294 kts | 56° |
| 2026-05-05 17:28 | 60.36878 | 11.42891 | 10262 ft | 312 kts | 57° |
| 2026-05-05 17:28 | 60.37990 | 11.46813 | 10718 ft | 328 kts | 59° |
| 2026-05-05 17:28 | 60.39092 | 11.50914 | 11467 ft | 335 kts | 60° |
| 2026-05-05 17:28 | 60.40129 | 11.55171 | 12224 ft | 342 kts | 66° |
| 2026-05-05 17:29 | 60.40736 | 11.59864 | 13004 ft | 349 kts | 81° |
| 2026-05-05 17:29 | 60.40810 | 11.64805 | 13771 ft | 355 kts | 94° |
| 2026-05-05 17:29 | 60.40337 | 11.69727 | 14416 ft | 360 kts | 108° |
| 2026-05-05 17:29 | 60.39318 | 11.74386 | 15017 ft | 365 kts | 120° |
| 2026-05-05 17:30 | 60.38092 | 11.78932 | 15614 ft | 371 kts | 121° |
| 2026-05-05 17:30 | 60.36864 | 11.83488 | 16208 ft | 377 kts | 121° |
| 2026-05-05 17:30 | 60.35601 | 11.88170 | 16817 ft | 383 kts | 121° |
| 2026-05-05 17:30 | 60.34316 | 11.92922 | 17410 ft | 389 kts | 122° |
| 2026-05-05 17:31 | 60.33009 | 11.97762 | 18006 ft | 395 kts | 122° |
| 2026-05-05 17:31 | 60.31688 | 12.02658 | 18542 ft | 400 kts | 122° |
| 2026-05-05 17:31 | 60.30343 | 12.07643 | 19016 ft | 407 kts | 122° |
| 2026-05-05 17:31 | 60.28972 | 12.12701 | 19508 ft | 414 kts | 123° |
| 2026-05-05 17:32 | 60.27575 | 12.17830 | 19957 ft | 422 kts | 124° |
| 2026-05-05 17:32 | 60.26149 | 12.23053 | 20408 ft | 429 kts | 124° |
| 2026-05-05 17:32 | 60.24697 | 12.28356 | 20876 ft | 435 kts | 125° |
| 2026-05-05 17:32 | 60.23220 | 12.33740 | 21348 ft | 441 kts | 125° |
| 2026-05-05 17:33 | 60.21723 | 12.39178 | 21800 ft | 447 kts | 126° |
| 2026-05-05 17:33 | 60.20224 | 12.44605 | 22239 ft | 453 kts | 126° |
| 2026-05-05 17:33 | 60.18783 | 12.50302 | 22671 ft | 464 kts | 118° |
| 2026-05-05 17:33 | 60.17737 | 12.56532 | 23112 ft | 477 kts | 108° |
| 2026-05-05 17:34 | 60.17165 | 12.63154 | 23517 ft | 486 kts | 99° |
| 2026-05-05 17:34 | 60.16759 | 12.69937 | 23883 ft | 490 kts | 99° |
| 2026-05-05 17:34 | 60.16339 | 12.76761 | 24299 ft | 493 kts | 99° |
| 2026-05-05 17:34 | 60.15904 | 12.83603 | 24728 ft | 496 kts | 100° |
| 2026-05-05 17:35 | 60.15457 | 12.90509 | 25172 ft | 498 kts | 100° |
| 2026-05-05 17:35 | 60.15002 | 12.97416 | 25592 ft | 501 kts | 100° |
| 2026-05-05 17:35 | 60.14543 | 13.04375 | 26023 ft | 504 kts | 100° |
| 2026-05-05 17:35 | 60.14081 | 13.11359 | 26462 ft | 506 kts | 100° |
| 2026-05-05 17:36 | 60.13611 | 13.18384 | 26916 ft | 509 kts | 100° |
| 2026-05-05 17:36 | 60.13136 | 13.25439 | 27341 ft | 512 kts | 100° |
| 2026-05-05 17:36 | 60.12655 | 13.32537 | 27751 ft | 514 kts | 100° |
| 2026-05-05 17:36 | 60.12173 | 13.39662 | 28174 ft | 517 kts | 100° |
| 2026-05-05 17:37 | 60.11684 | 13.46814 | 28552 ft | 518 kts | 101° |
| 2026-05-05 17:37 | 60.11357 | 13.51562 | 28841 ft | 520 kts | 101° |
| 2026-05-05 17:37 | 60.10690 | 13.61187 | 29427 ft | 523 kts | 101° |
| 2026-05-05 17:37 | 60.10181 | 13.68414 | 29867 ft | 525 kts | 101° |
| 2026-05-05 17:38 | 60.09665 | 13.75677 | 30236 ft | 527 kts | 101° |
| 2026-05-05 17:38 | 60.09140 | 13.82983 | 30617 ft | 529 kts | 101° |
| 2026-05-05 17:38 | 60.08614 | 13.90269 | 31015 ft | 530 kts | 101° |
| 2026-05-05 17:38 | 60.08081 | 13.97585 | 31418 ft | 530 kts | 101° |
| 2026-05-05 17:39 | 60.07545 | 14.04882 | 31912 ft | 528 kts | 101° |
| 2026-05-05 17:39 | 60.07008 | 14.12130 | 32476 ft | 525 kts | 101° |
| 2026-05-05 17:39 | 60.06473 | 14.19341 | 33023 ft | 523 kts | 101° |
| 2026-05-05 17:39 | 60.05938 | 14.26514 | 33584 ft | 520 kts | 101° |
| 2026-05-05 17:40 | 60.05400 | 14.33652 | 34107 ft | 517 kts | 101° |
| 2026-05-05 17:40 | 60.04879 | 14.40775 | 34564 ft | 516 kts | 98° |
| 2026-05-05 17:40 | 60.04700 | 14.47956 | 34804 ft | 518 kts | 89° |
| 2026-05-05 17:41 | 60.05003 | 14.62140 | 34880 ft | 508 kts | 88° |
| 2026-05-05 17:41 | 60.05322 | 14.76257 | 34868 ft | 506 kts | 88° |
| 2026-05-05 17:42 | 60.05616 | 14.90350 | 34878 ft | 507 kts | 89° |
| 2026-05-05 17:42 | 60.05869 | 15.04457 | 34876 ft | 507 kts | 89° |
| 2026-05-05 17:43 | 60.06106 | 15.18571 | 34876 ft | 507 kts | 89° |
| 2026-05-05 17:43 | 60.06347 | 15.32684 | 34873 ft | 507 kts | 89° |
| 2026-05-05 17:44 | 60.06573 | 15.46810 | 34852 ft | 507 kts | 89° |
| 2026-05-05 17:44 | 60.06774 | 15.60829 | 34865 ft | 507 kts | 90° |
| 2026-05-05 17:45 | 60.06957 | 15.74943 | 34876 ft | 507 kts | 90° |
| 2026-05-05 17:45 | 60.07128 | 15.89064 | 34879 ft | 507 kts | 90° |
| 2026-05-05 17:46 | 60.07290 | 16.03185 | 34913 ft | 507 kts | 90° |
| 2026-05-05 17:46 | 60.07432 | 16.17276 | 34847 ft | 505 kts | 90° |
| 2026-05-05 17:47 | 60.07557 | 16.31350 | 34855 ft | 505 kts | 90° |
| 2026-05-05 17:47 | 60.07672 | 16.45429 | 34850 ft | 506 kts | 90° |
| 2026-05-05 17:48 | 60.07785 | 16.59524 | 34856 ft | 506 kts | 90° |
| 2026-05-05 17:48 | 60.07891 | 16.73620 | 34861 ft | 506 kts | 91° |
| 2026-05-05 17:49 | 60.07981 | 16.87720 | 34830 ft | 506 kts | 91° |
| 2026-05-05 17:49 | 60.08037 | 17.01809 | 34852 ft | 506 kts | 92° |
| 2026-05-05 17:50 | 60.07934 | 17.15903 | 34865 ft | 505 kts | 94° |
| 2026-05-05 17:50 | 60.07728 | 17.29973 | 34872 ft | 505 kts | 94° |
| 2026-05-05 17:51 | 60.07530 | 17.44041 | 34877 ft | 505 kts | 94° |
| 2026-05-05 17:51 | 60.07352 | 17.58094 | 34861 ft | 505 kts | 94° |
| 2026-05-05 17:52 | 60.07165 | 17.72130 | 34866 ft | 504 kts | 94° |
| 2026-05-05 17:52 | 60.06991 | 17.83795 | 34860 ft | 504 kts | 94° |
| 2026-05-05 17:53 | 60.06759 | 17.97840 | 34862 ft | 504 kts | 95° |
| 2026-05-05 17:53 | 60.06517 | 18.11856 | 34870 ft | 504 kts | 95° |
| 2026-05-05 17:54 | 60.06258 | 18.25865 | 34834 ft | 503 kts | 95° |
| 2026-05-05 17:54 | 60.05987 | 18.39853 | 34898 ft | 503 kts | 95° |
| 2026-05-05 17:55 | 60.05702 | 18.53821 | 34890 ft | 502 kts | 95° |
| 2026-05-05 17:55 | 60.05404 | 18.67766 | 34890 ft | 501 kts | 95° |
| 2026-05-05 17:56 | 60.05093 | 18.81709 | 34887 ft | 501 kts | 95° |
| 2026-05-05 17:56 | 60.04768 | 18.95641 | 34858 ft | 501 kts | 96° |
| 2026-05-05 17:57 | 60.04421 | 19.09571 | 34872 ft | 501 kts | 96° |
| 2026-05-05 17:57 | 60.04060 | 19.23482 | 34884 ft | 501 kts | 96° |
| 2026-05-05 17:58 | 60.03685 | 19.37394 | 34886 ft | 500 kts | 96° |
| 2026-05-05 17:58 | 60.03303 | 19.51292 | 34878 ft | 500 kts | 96° |
| 2026-05-05 17:59 | 60.02905 | 19.65219 | 34866 ft | 501 kts | 97° |
| 2026-05-05 17:59 | 60.02482 | 19.79119 | 34868 ft | 500 kts | 97° |
| 2026-05-05 18:00 | 60.02052 | 19.92995 | 34870 ft | 500 kts | 97° |
| 2026-05-05 18:00 | 60.01614 | 20.06879 | 34873 ft | 500 kts | 97° |
| 2026-05-05 18:01 | 60.01157 | 20.20689 | 34879 ft | 500 kts | 97° |
| 2026-05-05 18:01 | 60.00682 | 20.34563 | 34852 ft | 500 kts | 97° |
| 2026-05-05 18:02 | 60.00189 | 20.48416 | 34868 ft | 500 kts | 98° |
| 2026-05-05 18:02 | 59.99685 | 20.62255 | 34875 ft | 499 kts | 98° |
| 2026-05-05 18:03 | 59.99169 | 20.76082 | 34878 ft | 499 kts | 98° |
| 2026-05-05 18:03 | 59.98638 | 20.89897 | 34879 ft | 499 kts | 98° |
| 2026-05-05 18:04 | 59.98097 | 21.03754 | 34869 ft | 505 kts | 98° |
| 2026-05-05 18:04 | 59.97512 | 21.17982 | 34864 ft | 520 kts | 98° |
| 2026-05-05 18:04 | 59.97212 | 21.25183 | 34721 ft | 520 kts | 98° |
| 2026-05-05 18:05 | 59.96913 | 21.32400 | 34041 ft | 521 kts | 99° |
| 2026-05-05 18:05 | 59.96613 | 21.39619 | 33225 ft | 523 kts | 99° |
| 2026-05-05 18:05 | 59.96306 | 21.46872 | 32367 ft | 526 kts | 99° |
| 2026-05-05 18:05 | 59.95991 | 21.54162 | 31492 ft | 528 kts | 99° |
| 2026-05-05 18:06 | 59.95667 | 21.61476 | 30626 ft | 530 kts | 99° |
| 2026-05-05 18:06 | 59.95449 | 21.66335 | 29996 ft | 532 kts | 99° |
| 2026-05-05 18:06 | 59.95000 | 21.76189 | 28597 ft | 535 kts | 99° |
| 2026-05-05 18:06 | 59.94659 | 21.83583 | 27527 ft | 536 kts | 99° |
| 2026-05-05 18:07 | 59.94315 | 21.91006 | 26437 ft | 538 kts | 99° |
| 2026-05-05 18:07 | 59.93967 | 21.98462 | 25329 ft | 540 kts | 99° |
| 2026-05-05 18:07 | 59.93615 | 22.05927 | 24407 ft | 540 kts | 99° |
| 2026-05-05 18:07 | 59.93258 | 22.13425 | 23934 ft | 544 kts | 99° |
| 2026-05-05 18:08 | 59.92892 | 22.20942 | 23462 ft | 543 kts | 99° |
| 2026-05-05 18:08 | 59.92536 | 22.28254 | 22894 ft | 515 kts | 100° |
| 2026-05-05 18:08 | 59.92203 | 22.35095 | 22307 ft | 492 kts | 100° |
| 2026-05-05 18:08 | 59.91868 | 22.41819 | 21772 ft | 483 kts | 100° |
| 2026-05-05 18:09 | 59.91531 | 22.48436 | 21248 ft | 478 kts | 100° |
| 2026-05-05 18:09 | 59.91189 | 22.54996 | 20729 ft | 474 kts | 100° |
| 2026-05-05 18:09 | 59.90844 | 22.61500 | 20224 ft | 472 kts | 100° |
| 2026-05-05 18:09 | 59.90498 | 22.67947 | 19718 ft | 466 kts | 100° |
| 2026-05-05 18:10 | 59.90155 | 22.74351 | 19225 ft | 463 kts | 100° |
| 2026-05-05 18:10 | 59.89816 | 22.80704 | 18741 ft | 460 kts | 100° |
| 2026-05-05 18:10 | 59.89479 | 22.87017 | 18265 ft | 457 kts | 100° |
| 2026-05-05 18:10 | 59.89144 | 22.93288 | 17728 ft | 453 kts | 100° |
| 2026-05-05 18:11 | 59.88809 | 22.99504 | 17198 ft | 449 kts | 100° |
| 2026-05-05 18:11 | 59.88473 | 23.05640 | 16611 ft | 443 kts | 101° |
| 2026-05-05 18:11 | 59.88137 | 23.11698 | 16104 ft | 438 kts | 101° |
| 2026-05-05 18:11 | 59.87800 | 23.17700 | 15620 ft | 434 kts | 101° |
| 2026-05-05 18:12 | 59.87461 | 23.23640 | 15117 ft | 430 kts | 101° |
| 2026-05-05 18:12 | 59.87121 | 23.29518 | 14620 ft | 425 kts | 101° |
| 2026-05-05 18:12 | 59.86783 | 23.35339 | 14121 ft | 421 kts | 101° |
| 2026-05-05 18:12 | 59.86448 | 23.41105 | 13649 ft | 417 kts | 101° |
| 2026-05-05 18:13 | 59.86114 | 23.46817 | 13097 ft | 411 kts | 100° |
| 2026-05-05 18:13 | 59.85783 | 23.52420 | 12556 ft | 404 kts | 99° |
| 2026-05-05 18:13 | 59.85455 | 23.57918 | 12019 ft | 397 kts | 99° |
| 2026-05-05 18:13 | 59.85130 | 23.63312 | 11498 ft | 389 kts | 99° |
| 2026-05-05 18:14 | 59.84807 | 23.68608 | 10962 ft | 381 kts | 99° |
| 2026-05-05 18:14 | 59.84116 | 23.73615 | 10459 ft | 373 kts | 116° |
| 2026-05-05 18:14 | 59.83084 | 23.78317 | 9995 ft | 368 kts | 117° |
| 2026-05-05 18:14 | 59.82067 | 23.82892 | 9829 ft | 365 kts | 117° |
| 2026-05-05 18:15 | 59.81033 | 23.87504 | 9846 ft | 365 kts | 117° |
| 2026-05-05 18:15 | 59.79998 | 23.92101 | 9849 ft | 365 kts | 117° |
| 2026-05-05 18:15 | 59.78964 | 23.96693 | 9849 ft | 365 kts | 117° |
| 2026-05-05 18:15 | 59.77931 | 24.01296 | 9849 ft | 365 kts | 117° |
| 2026-05-05 18:16 | 59.76898 | 24.05890 | 9843 ft | 364 kts | 117° |
| 2026-05-05 18:16 | 59.75865 | 24.10476 | 9843 ft | 364 kts | 117° |
| 2026-05-05 18:16 | 59.74828 | 24.15063 | 9843 ft | 364 kts | 117° |
| 2026-05-05 18:16 | 59.73787 | 24.19648 | 9844 ft | 364 kts | 117° |
| 2026-05-05 18:17 | 59.72743 | 24.24226 | 9843 ft | 364 kts | 117° |
| 2026-05-05 18:17 | 59.71700 | 24.28803 | 9825 ft | 365 kts | 118° |
| 2026-05-05 18:17 | 59.70650 | 24.33406 | 9711 ft | 366 kts | 119° |
| 2026-05-05 18:17 | 59.69618 | 24.37935 | 9435 ft | 351 kts | 119° |
| 2026-05-05 18:18 | 59.68659 | 24.42173 | 9295 ft | 324 kts | 119° |
| 2026-05-05 18:18 | 59.67760 | 24.46134 | 8918 ft | 310 kts | 119° |
| 2026-05-05 18:18 | 59.66872 | 24.49986 | 8538 ft | 306 kts | 118° |
| 2026-05-05 18:18 | 59.65986 | 24.53793 | 8245 ft | 303 kts | 118° |
| 2026-05-05 18:19 | 59.65105 | 24.57568 | 7918 ft | 300 kts | 118° |
| 2026-05-05 18:19 | 59.64235 | 24.61305 | 7593 ft | 298 kts | 117° |
| 2026-05-05 18:19 | 59.63370 | 24.65017 | 7278 ft | 296 kts | 117° |
| 2026-05-05 18:19 | 59.62512 | 24.68705 | 6971 ft | 294 kts | 117° |
| 2026-05-05 18:20 | 59.61660 | 24.72363 | 6664 ft | 292 kts | 116° |
| 2026-05-05 18:20 | 59.60817 | 24.75984 | 6361 ft | 289 kts | 116° |
| 2026-05-05 18:20 | 59.59978 | 24.79586 | 6040 ft | 288 kts | 115° |
| 2026-05-05 18:20 | 59.59142 | 24.83161 | 5710 ft | 286 kts | 115° |
| 2026-05-05 18:21 | 59.58317 | 24.86669 | 5383 ft | 285 kts | 116° |
| 2026-05-05 18:21 | 59.57484 | 24.90215 | 5056 ft | 283 kts | 116° |
| 2026-05-05 18:21 | 59.56678 | 24.93650 | 4908 ft | 266 kts | 116° |
| 2026-05-05 18:21 | 59.55925 | 24.96873 | 4657 ft | 253 kts | 116° |
| 2026-05-05 18:22 | 59.55192 | 24.99994 | 4176 ft | 249 kts | 116° |
| 2026-05-05 18:22 | 59.54463 | 25.03076 | 3685 ft | 247 kts | 116° |
| 2026-05-05 18:22 | 59.53737 | 25.06132 | 3184 ft | 245 kts | 116° |
| 2026-05-05 18:22 | 59.53014 | 25.09167 | 2677 ft | 244 kts | 116° |
| 2026-05-05 18:23 | 59.52297 | 25.12185 | 2242 ft | 240 kts | 116° |
| 2026-05-05 18:23 | 59.51638 | 25.15110 | 2194 ft | 229 kts | 114° |
| 2026-05-05 18:23 | 59.50723 | 25.17569 | 2204 ft | 220 kts | 147° |
| 2026-05-05 18:23 | 59.49342 | 25.18625 | 2234 ft | 212 kts | 175° |
| 2026-05-05 18:24 | 59.47884 | 25.18959 | 2208 ft | 210 kts | 179° |
| 2026-05-05 18:24 | 59.46428 | 25.19183 | 2200 ft | 209 kts | 180° |
| 2026-05-05 18:24 | 59.44974 | 25.19374 | 2204 ft | 209 kts | 180° |
| 2026-05-05 18:24 | 59.43560 | 25.19068 | 2199 ft | 202 kts | 207° |
| 2026-05-05 18:25 | 59.42431 | 25.17679 | 2204 ft | 180 kts | 227° |
| 2026-05-05 18:25 | 59.41897 | 25.16503 | 2208 ft | 170 kts | 239° |
| 2026-05-05 18:25 | 59.41280 | 25.13761 | 2231 ft | 162 kts | 261° |
| 2026-05-05 18:25 | 59.41207 | 25.11578 | 2230 ft | 160 kts | 272° |
| 2026-05-05 18:26 | 59.41219 | 25.09404 | 2233 ft | 158 kts | 272° |
| 2026-05-05 18:26 | 59.41230 | 25.07240 | 2201 ft | 158 kts | 272° |
| 2026-05-05 18:26 | 59.41240 | 25.05143 | 2041 ft | 143 kts | 272° |
| 2026-05-05 18:26 | 59.41248 | 25.03305 | 1865 ft | 131 kts | 272° |
| 2026-05-05 18:27 | 59.41256 | 25.01537 | 1702 ft | 129 kts | 273° |
| 2026-05-05 18:27 | 59.41264 | 24.99789 | 1533 ft | 128 kts | 272° |
| 2026-05-05 18:27 | 59.41272 | 24.98052 | 1366 ft | 124 kts | 272° |
| 2026-05-05 18:27 | 59.41279 | 24.96373 | 1188 ft | 123 kts | 272° |
| 2026-05-05 18:28 | 59.41296 | 24.93013 | 838 ft | 123 kts | 271° |
| 2026-05-05 18:28 | 59.41306 | 24.91324 | 703 ft | 123 kts | 270° |
| 2026-05-05 18:28 | 59.41312 | 24.89656 | 539 ft | 122 kts | 270° |
| 2026-05-05 18:29 | 59.41316 | 24.87995 | 374 ft | 121 kts | 269° |
| 2026-05-05 18:29 | 59.41317 | 24.86347 | 220 ft | 120 kts | 269° |
| 2026-05-05 18:29 | 59.41318 | 24.84744 | 141 ft | 105 kts | 269° |
| 2026-05-05 18:29 | 59.41323 | 24.83646 | 142 ft | 56 kts | 270° |
| 2026-05-05 18:30 | 59.41328 | 24.83088 | 139 ft | 25 kts | 272° |
| 2026-05-05 18:30 | 59.41331 | 24.82920 | 138 ft | 17 kts | 273° |
| 2026-05-05 18:30 | 59.41375 | 24.82640 | 138 ft | 22 kts | 294° |
| 2026-05-05 18:30 | 59.41419 | 24.82470 | 139 ft | 14 kts | 301° |
| 2026-05-05 18:31 | 59.41472 | 24.82289 | 139 ft | 17 kts | 299° |
| 2026-05-05 18:31 | 59.41502 | 24.82056 | 139 ft | 19 kts | 269° |
| 2026-05-05 18:31 | 59.41503 | 24.81786 | 139 ft | 21 kts | 269° |
| 2026-05-05 18:31 | 59.41506 | 24.81491 | 139 ft | 22 kts | 270° |
| 2026-05-05 18:32 | 59.41510 | 24.81228 | 139 ft | 12 kts | 299° |
| 2026-05-05 18:32 | 59.41601 | 24.81180 | 139 ft | 14 kts | 0° |
| 2026-05-05 18:32 | 59.41664 | 24.81065 | 139 ft | 15 kts | 276° |
| 2026-05-05 18:32 | 59.41665 | 24.80919 | 139 ft | 17 kts | 270° |
| 2026-05-05 18:33 | 59.41665 | 24.80690 | 138 ft | 17 kts | 270° |
| 2026-05-05 18:33 | 59.41689 | 24.80503 | 138 ft | 15 kts | 325° |
| 2026-05-05 18:33 | 59.41737 | 24.80377 | 138 ft | 11 kts | 284° |
| 2026-05-05 18:33 | 59.41748 | 24.80179 | 138 ft | 9 kts | 270° |
| 2026-05-05 18:34 | 59.41742 | 24.80069 | 138 ft | 7 kts | 231° |
| 2026-05-05 18:34 | 59.41720 | 24.80052 | 138 ft | 4 kts | 189° |
| 2026-05-05 18:34 | 59.41704 | 24.80051 | 138 ft | 2 kts | 179° |
| 2026-05-05 18:34 | 59.41698 | 24.80051 | 138 ft | 0 kts | 179° |